Accueil
METAR-TAF:

METAR-TAF

Aéroports :

Roi Et, Thaïlande

latitude: 16-07-00N, longitude: 103-46-26E, altitude: 138 m

Observation

Le bulletin a été fait il y a 1 heure et 9 minutes, à 22:00 UTC
Vent 6 kt de nord-est
Température 12°C
Humidité 67%
Pression 1015 hPa
Visibilité: 9000 m

METAR: VTUV 182200Z 04006KT 9000 NSC 12/06 Q1015 NOSIG

Heure: 06:09 (23:09 UTC)

Prévision

Le bulletin a été fait il y a 6 heures et 9 minutes, à 17:00 UTC
Prévision valable du 18 à 18 UTC au 19 à 18 UTC
Vent 8 kt de est
Visibilité: 9000 m

TAF: VTUV 181700Z 1818/1918 08008KT 9000 NSC

Observations et prévisions météorologiques de plus de 4000 aéroports (messages METAR et TAF).

Les stations disponibles sont représentées par des disques jaunes et rouges sur la carte.

Passer la souris dessus pour voir le nom de la station.

Cliquer dessus pour voir les observations et prévisions météorologiques.

Pour changer de carte: cliquez sur les boutons verts avec une croix noire pour zoomer, sur le bouton vert avec un tiret pour effectuer un zoom arrière, ou sur les flèches vertes pour les cartes adjacentes.


METAR-TAF: